Time;durP1;ratioP1;P1;durP2;ratioP2;P2;SDS_P1;SDS_P2;PMS_P1;PMS_P2;Temp;Humidity;BMP_temperature;BMP_pressure;BME280_temperature;BME280_humidity;BME280_pressure;Samples;Min_cycle;Max_cycle;Signal;HPM_P1;HPM_P2
2021/09/17 00:00:10;;;;;;;;;;;21.30;71.90;;;;;;5052909;28;1219;-70
2021/09/17 00:02:35;;;;;;;;;;;21.30;72.60;;;;;;5021946;28;1163;-71
2021/09/17 00:05:01;;;;;;;;;;;21.30;71.80;;;;;;5052991;28;1898;-71
2021/09/17 00:07:26;;;;;;;;;;;21.30;71.80;;;;;;5052256;28;1057;-70
2021/09/17 00:09:52;;;;;;;;;;;21.30;71.80;;;;;;5034920;28;1275;-71
2021/09/17 00:12:17;;;;;;;;;;;21.30;72.00;;;;;;5034875;28;1264;-71
2021/09/17 00:14:43;;;;;;;;;;;21.30;71.90;;;;;;5053184;28;1244;-70
2021/09/17 00:17:08;;;;;;;;;;;21.30;72.60;;;;;;5033066;28;1395;-71
2021/09/17 00:19:34;;;;;;;;;;;21.20;71.80;;;;;;5033586;28;1278;-70
2021/09/17 00:21:59;;;;;;;;;;;21.30;71.90;;;;;;5027490;28;1189;-71
2021/09/17 00:24:24;;;;;;;;;;;21.30;71.90;;;;;;5043563;28;1989;-71
2021/09/17 00:26:50;;;;;;;;;;;21.30;71.90;;;;;;5044315;28;1175;-71
2021/09/17 00:29:15;;;;;;;;;;;21.30;71.90;;;;;;5044617;28;1225;-71
2021/09/17 00:31:41;;;;;;;;;;;21.30;71.90;;;;;;5049214;28;1281;-71
2021/09/17 00:34:06;;;;;;;;;;;21.30;71.90;;;;;;5052894;28;1308;-71
2021/09/17 00:36:32;;;;;;;;;;;21.30;71.90;;;;;;5052676;28;1309;-71
2021/09/17 00:38:57;;;;;;;;;;;21.30;71.90;;;;;;5052601;28;1276;-71
2021/09/17 00:41:22;;;;;;;;;;;21.20;71.90;;;;;;5052833;28;1272;-71
2021/09/17 00:43:48;;;;;;;;;;;21.30;72.00;;;;;;5052731;28;1276;-71
2021/09/17 00:46:13;;;;;;;;;;;21.20;71.90;;;;;;5052281;28;1902;-72
2021/09/17 00:48:39;;;;;;;;;;;21.30;72.00;;;;;;5052708;28;1342;-71
2021/09/17 00:51:04;;;;;;;;;;;21.30;72.00;;;;;;5052586;28;1327;-71
2021/09/17 00:53:33;;;;;;;;;;;21.30;72.00;;;;;;5034847;28;1266;-71
2021/09/17 00:55:59;;;;;;;;;;;21.30;72.00;;;;;;5035064;28;1285;-71
2021/09/17 00:58:24;;;;;;;;;;;21.30;72.00;;;;;;5052533;28;1604;-71
2021/09/17 01:00:50;;;;;;;;;;;21.30;72.00;;;;;;5050379;28;1407;-71
2021/09/17 01:03:15;;;;;;;;;;;21.30;72.00;;;;;;5041336;28;1088;-71
2021/09/17 01:05:41;;;;;;;;;;;21.30;72.00;;;;;;5052015;28;1902;-71
2021/09/17 01:08:06;;;;;;;;;;;21.30;72.00;;;;;;5052356;28;1326;-71
2021/09/17 01:10:32;;;;;;;;;;;21.20;72.00;;;;;;5034534;28;1325;-71
2021/09/17 01:12:57;;;;;;;;;;;21.20;72.00;;;;;;5034880;28;1325;-71
2021/09/17 01:15:22;;;;;;;;;;;21.30;72.10;;;;;;5052532;28;1282;-71
2021/09/17 01:17:48;;;;;;;;;;;21.20;72.00;;;;;;5052360;28;1306;-71
2021/09/17 01:20:17;;;;;;;;;;;21.20;72.00;;;;;;5034475;28;1372;-71
2021/09/17 01:22:42;;;;;;;;;;;21.30;72.10;;;;;;5052346;28;1301;-71
2021/09/17 01:25:09;;;;;;;;;;;21.20;72.00;;;;;;5052281;28;1953;-70
2021/09/17 01:27:35;;;;;;;;;;;21.30;72.10;;;;;;5034460;28;1288;-71
2021/09/17 01:30:00;;;;;;;;;;;21.30;72.10;;;;;;5052131;28;1296;-71
2021/09/17 01:32:26;;;;;;;;;;;21.30;72.80;;;;;;5034678;28;1257;-70
2021/09/17 01:34:51;;;;;;;;;;;21.20;72.00;;;;;;5034451;28;1257;-72
2021/09/17 01:37:16;;;;;;;;;;;21.20;72.00;;;;;;5055657;28;1264;-71
2021/09/17 01:39:42;;;;;;;;;;;21.20;72.00;;;;;;5055872;28;1373;-71
2021/09/17 01:42:07;;;;;;;;;;;21.20;72.10;;;;;;5056324;28;1280;-71
2021/09/17 01:44:34;;;;;;;;;;;21.20;72.10;;;;;;5055769;28;1977;-71
2021/09/17 01:46:59;;;;;;;;;;;21.20;72.10;;;;;;5037894;28;1097;-71
2021/09/17 01:49:25;;;;;;;;;;;21.20;72.10;;;;;;5055710;28;1270;-71
2021/09/17 01:51:53;;;;;;;;;;;21.20;72.10;;;;;;5055708;28;1276;-71
2021/09/17 01:54:18;;;;;;;;;;;21.20;72.00;;;;;;5055767;28;1138;-71
2021/09/17 01:56:44;;;;;;;;;;;21.30;72.10;;;;;;5037707;28;1052;-71
2021/09/17 01:59:09;;;;;;;;;;;21.20;72.10;;;;;;5055643;28;1309;-71
2021/09/17 02:01:34;;;;;;;;;;;21.20;72.10;;;;;;5055607;28;1179;-71
2021/09/17 02:04:01;;;;;;;;;;;21.30;72.10;;;;;;5055687;28;1910;-71
2021/09/17 02:06:26;;;;;;;;;;;21.20;72.10;;;;;;5055164;28;1252;-71
2021/09/17 02:08:52;;;;;;;;;;;21.20;72.10;;;;;;5055346;28;1675;-71
2021/09/17 02:11:18;;;;;;;;;;;21.20;72.10;;;;;;5037763;28;1238;-71
2021/09/17 02:13:43;;;;;;;;;;;21.20;72.10;;;;;;5037547;28;1263;-70
2021/09/17 02:16:08;;;;;;;;;;;21.20;72.10;;;;;;5055111;28;1265;-71
2021/09/17 02:18:34;;;;;;;;;;;21.20;72.10;;;;;;5055205;28;1260;-71
2021/09/17 02:20:59;;;;;;;;;;;21.20;72.10;;;;;;5037151;28;1273;-70
2021/09/17 02:23:25;;;;;;;;;;;21.20;72.10;;;;;;5055164;28;1263;-70
2021/09/17 02:25:50;;;;;;;;;;;21.20;72.10;;;;;;5036897;28;1894;-71
2021/09/17 02:28:16;;;;;;;;;;;21.20;72.10;;;;;;5054977;28;1345;-71
2021/09/17 02:30:41;;;;;;;;;;;21.30;72.20;;;;;;5037395;28;1274;-71
2021/09/17 02:33:06;;;;;;;;;;;21.20;72.20;;;;;;5055114;28;1281;-72
2021/09/17 02:35:32;;;;;;;;;;;21.20;72.20;;;;;;5054515;28;1182;-71
2021/09/17 02:37:57;;;;;;;;;;;21.20;72.20;;;;;;5054882;28;1132;-72
2021/09/17 02:40:23;;;;;;;;;;;21.20;72.20;;;;;;5054778;28;1180;-71
2021/09/17 02:42:48;;;;;;;;;;;21.20;72.20;;;;;;5037036;28;1261;-71
2021/09/17 02:45:14;;;;;;;;;;;21.20;72.20;;;;;;5054804;28;1902;-71
2021/09/17 02:47:40;;;;;;;;;;;21.20;72.20;;;;;;5054084;28;1493;-71
2021/09/17 02:50:05;;;;;;;;;;;21.20;72.20;;;;;;5036594;28;1394;-71
2021/09/17 02:52:31;;;;;;;;;;;21.20;72.20;;;;;;5054597;28;1246;-71
2021/09/17 02:54:56;;;;;;;;;;;21.20;72.20;;;;;;5054572;28;1308;-71
2021/09/17 02:57:21;;;;;;;;;;;21.20;72.20;;;;;;5054268;28;1241;-71
2021/09/17 02:59:47;;;;;;;;;;;21.20;72.20;;;;;;5054470;28;1338;-71
2021/09/17 03:02:13;;;;;;;;;;;21.20;72.20;;;;;;5054650;28;1210;-71
2021/09/17 03:04:38;;;;;;;;;;;21.20;72.20;;;;;;5054049;28;1906;-71
2021/09/17 03:07:04;;;;;;;;;;;21.20;72.20;;;;;;5054383;28;701;-71
2021/09/17 03:09:29;;;;;;;;;;;21.20;72.20;;;;;;5036468;28;1338;-71
2021/09/17 03:11:55;;;;;;;;;;;21.20;72.30;;;;;;5036628;28;1324;-72
2021/09/17 03:14:20;;;;;;;;;;;21.20;72.20;;;;;;5054145;28;1299;-71
2021/09/17 03:16:45;;;;;;;;;;;21.20;72.20;;;;;;5053954;28;1301;-71
2021/09/17 03:19:11;;;;;;;;;;;21.20;72.20;;;;;;5035782;28;1448;-71
2021/09/17 03:21:36;;;;;;;;;;;21.20;72.30;;;;;;5054220;28;1279;-71
2021/09/17 03:24:02;;;;;;;;;;;21.20;72.30;;;;;;5053910;28;1901;-71
2021/09/17 03:26:27;;;;;;;;;;;21.20;72.30;;;;;;5053893;28;1240;-72
2021/09/17 03:28:53;;;;;;;;;;;21.20;72.30;;;;;;5054278;28;1401;-72
2021/09/17 03:31:18;;;;;;;;;;;21.20;72.30;;;;;;5053992;28;1338;-72
2021/09/17 03:33:44;;;;;;;;;;;21.20;72.30;;;;;;5053872;28;1298;-72
2021/09/17 03:36:09;;;;;;;;;;;21.20;72.30;;;;;;5053485;28;1270;-72
2021/09/17 03:38:34;;;;;;;;;;;21.20;72.30;;;;;;5053922;28;1394;-72
2021/09/17 03:41:00;;;;;;;;;;;21.20;72.30;;;;;;5035897;28;1270;-72
2021/09/17 03:43:25;;;;;;;;;;;21.20;72.30;;;;;;5035994;28;1404;-72
2021/09/17 03:45:51;;;;;;;;;;;21.20;72.30;;;;;;5053290;28;1894;-72
2021/09/17 03:48:16;;;;;;;;;;;21.20;72.30;;;;;;5053437;28;1281;-72
2021/09/17 03:50:42;;;;;;;;;;;21.20;72.30;;;;;;5035685;28;1335;-72
2021/09/17 03:53:07;;;;;;;;;;;21.20;72.30;;;;;;5053518;28;1365;-73
2021/09/17 03:55:34;;;;;;;;;;;21.20;72.30;;;;;;5053328;28;1331;-72
2021/09/17 03:57:59;;;;;;;;;;;21.20;72.30;;;;;;5052481;28;1339;-72
2021/09/17 04:00:25;;;;;;;;;;;21.20;72.30;;;;;;5035641;28;1303;-72
2021/09/17 04:02:50;;;;;;;;;;;21.20;72.30;;;;;;5053156;28;1210;-73
2021/09/17 04:05:16;;;;;;;;;;;21.20;72.40;;;;;;5053393;28;1967;-73
2021/09/17 04:07:41;;;;;;;;;;;21.20;72.30;;;;;;5053054;28;1176;-73
2021/09/17 04:10:07;;;;;;;;;;;21.20;72.40;;;;;;5053076;28;1266;-73
2021/09/17 04:12:33;;;;;;;;;;;21.20;72.40;;;;;;5035480;28;1397;-73
2021/09/17 04:14:58;;;;;;;;;;;21.20;72.40;;;;;;5053268;28;1291;-72
2021/09/17 04:17:24;;;;;;;;;;;21.20;72.40;;;;;;5052813;28;1276;-72
2021/09/17 04:19:49;;;;;;;;;;;21.20;72.40;;;;;;5052957;28;1444;-72
2021/09/17 04:22:15;;;;;;;;;;;21.20;72.40;;;;;;5035123;28;1487;-71
2021/09/17 04:24:40;;;;;;;;;;;21.20;72.40;;;;;;5052945;28;1894;-73
2021/09/17 04:27:05;;;;;;;;;;;21.20;72.40;;;;;;5052669;28;1322;-73
2021/09/17 04:29:31;;;;;;;;;;;21.20;72.40;;;;;;5052852;28;1275;-73
2021/09/17 04:31:56;;;;;;;;;;;21.20;72.40;;;;;;5052737;28;1270;-73
2021/09/17 04:34:22;;;;;;;;;;;21.20;72.40;;;;;;5048781;28;1894;-73
2021/09/17 04:36:47;;;;;;;;;;;21.20;72.40;;;;;;5037265;28;1579;-70
2021/09/17 04:39:13;;;;;;;;;;;21.20;72.40;;;;;;5045229;28;1298;-70
2021/09/17 04:41:38;;;;;;;;;;;21.20;72.40;;;;;;5049382;28;1165;-70
2021/09/17 04:44:03;;;;;;;;;;;21.20;72.40;;;;;;5051630;28;1151;-69
2021/09/17 04:46:29;;;;;;;;;;;21.30;72.40;;;;;;5051684;28;1251;-69
2021/09/17 04:48:54;;;;;;;;;;;21.30;72.30;;;;;;5051803;28;1260;-69
2021/09/17 04:51:20;;;;;;;;;;;21.30;72.30;;;;;;5051514;28;1338;-70
2021/09/17 04:53:45;;;;;;;;;;;21.30;72.20;;;;;;5052065;28;1264;-71
2021/09/17 04:56:11;;;;;;;;;;;21.30;72.20;;;;;;5052028;28;1318;-71
2021/09/17 04:58:36;;;;;;;;;;;21.30;72.20;;;;;;5052543;28;1345;-71
2021/09/17 05:01:02;;;;;;;;;;;21.40;72.20;;;;;;5033747;28;1222;-67
2021/09/17 05:03:27;;;;;;;;;;;21.40;72.10;;;;;;5051953;28;1313;-68
2021/09/17 05:05:53;;;;;;;;;;;21.40;72.10;;;;;;5051319;28;1894;-69
2021/09/17 05:08:18;;;;;;;;;;;21.40;72.00;;;;;;5051633;28;1308;-71
2021/09/17 05:10:43;;;;;;;;;;;21.40;71.90;;;;;;5037016;28;1294;-70
2021/09/17 05:13:09;;;;;;;;;;;21.40;71.90;;;;;;5055871;28;1306;-69
2021/09/17 05:15:34;;;;;;;;;;;21.40;71.80;;;;;;5055193;28;1288;-72
2021/09/17 05:20:35;;;;;;;;;;;21.50;71.80;;;;;;5078963;23;1723;-70
2021/09/17 05:23:00;;;;;;;;;;;21.50;71.80;;;;;;5029846;28;1228;-70
2021/09/17 05:25:27;;;;;;;;;;;21.50;71.70;;;;;;5049413;28;1968;-70
2021/09/17 05:27:52;;;;;;;;;;;21.50;71.70;;;;;;5036372;28;1379;-70
2021/09/17 05:30:18;;;;;;;;;;;21.50;71.70;;;;;;5001640;28;1740;-71
2021/09/17 05:32:43;;;;;;;;;;;21.50;71.70;;;;;;5016489;28;1170;-71
2021/09/17 05:35:09;;;;;;;;;;;21.50;71.60;;;;;;5016390;28;1306;-70
2021/09/17 05:37:34;;;;;;;;;;;21.50;71.60;;;;;;4999674;28;1384;-70
2021/09/17 05:40:00;;;;;;;;;;;21.50;71.50;;;;;;5016410;28;1517;-71
2021/09/17 05:42:26;;;;;;;;;;;21.50;71.50;;;;;;4994682;28;2320;-71
2021/09/17 05:44:53;;;;;;;;;;;21.50;71.50;;;;;;5022866;28;1923;-69
2021/09/17 05:47:19;;;;;;;;;;;21.50;71.50;;;;;;4995875;28;1434;-69
2021/09/17 05:49:44;;;;;;;;;;;21.60;71.50;;;;;;5013592;28;1355;-69
2021/09/17 05:52:10;;;;;;;;;;;21.60;71.50;;;;;;5002816;28;1053;-70
2021/09/17 05:54:37;;;;;;;;;;;21.60;71.50;;;;;;5014346;28;1210;-70
2021/09/17 05:57:02;;;;;;;;;;;21.60;72.20;;;;;;5015760;28;1284;-70
2021/09/17 05:59:28;;;;;;;;;;;21.60;71.40;;;;;;4996515;28;1362;-70
2021/09/17 06:01:53;;;;;;;;;;;21.60;71.40;;;;;;5009053;28;1136;-70
2021/09/17 06:04:19;;;;;;;;;;;21.60;71.40;;;;;;4998377;28;1965;-71
2021/09/17 06:06:46;;;;;;;;;;;21.60;71.40;;;;;;4998063;28;1202;-71
2021/09/17 06:09:12;;;;;;;;;;;21.60;71.30;;;;;;5015636;28;1354;-71
2021/09/17 06:11:37;;;;;;;;;;;21.60;71.30;;;;;;5015739;28;988;-71
2021/09/17 06:14:02;;;;;;;;;;;21.60;71.30;;;;;;5015512;28;1280;-71
2021/09/17 06:16:28;;;;;;;;;;;21.60;71.30;;;;;;5015223;28;1253;-71
2021/09/17 06:19:01;;;;;;;;;;;21.60;71.20;;;;;;4998033;28;1317;-71
2021/09/17 06:21:27;;;;;;;;;;;21.60;71.30;;;;;;5014642;28;986;-71
2021/09/17 06:23:52;;;;;;;;;;;21.70;71.40;;;;;;4997895;28;1389;-71
2021/09/17 06:26:17;;;;;;;;;;;21.60;71.20;;;;;;5015034;28;1966;-71
2021/09/17 06:28:43;;;;;;;;;;;21.60;71.20;;;;;;4981367;28;1305;-69
2021/09/17 06:31:08;;;;;;;;;;;21.60;71.20;;;;;;5015253;28;1328;-69
2021/09/17 06:33:35;;;;;;;;;;;21.70;71.30;;;;;;4998126;28;1337;-69
2021/09/17 06:36:00;;;;;;;;;;;21.70;71.30;;;;;;5014966;28;1309;-71
2021/09/17 06:38:26;;;;;;;;;;;21.70;71.30;;;;;;4997582;28;1418;-70
2021/09/17 06:40:51;;;;;;;;;;;21.70;71.30;;;;;;5014680;28;1340;-71
2021/09/17 06:43:16;;;;;;;;;;;21.70;71.40;;;;;;4992545;28;1966;-72
2021/09/17 06:45:42;;;;;;;;;;;21.70;71.20;;;;;;5014572;28;1914;-73
2021/09/17 06:48:07;;;;;;;;;;;21.70;71.30;;;;;;5015199;28;1316;-72
2021/09/17 06:50:33;;;;;;;;;;;21.70;71.30;;;;;;5014937;28;1251;-71
2021/09/17 06:52:59;;;;;;;;;;;21.70;71.30;;;;;;5014867;28;1309;-70
2021/09/17 06:55:25;;;;;;;;;;;21.70;71.30;;;;;;5014858;28;1263;-71
2021/09/17 06:57:51;;;;;;;;;;;21.70;71.30;;;;;;4996845;28;1317;-69
2021/09/17 07:00:17;;;;;;;;;;;21.70;71.30;;;;;;5014974;28;1249;-69
2021/09/17 07:02:43;;;;;;;;;;;21.70;71.30;;;;;;4997422;28;1318;-68
2021/09/17 07:05:08;;;;;;;;;;;21.70;71.30;;;;;;4997152;28;1972;-71
2021/09/17 07:07:34;;;;;;;;;;;21.70;71.30;;;;;;4996841;28;1377;-71
2021/09/17 07:09:59;;;;;;;;;;;21.70;71.30;;;;;;5014437;28;1268;-71
2021/09/17 07:12:25;;;;;;;;;;;21.70;71.30;;;;;;4996627;28;1409;-69
2021/09/17 07:14:50;;;;;;;;;;;21.70;71.30;;;;;;5014396;28;1329;-69
2021/09/17 07:17:16;;;;;;;;;;;21.70;71.20;;;;;;5014085;28;1335;-69
2021/09/17 07:19:41;;;;;;;;;;;21.70;71.30;;;;;;5014113;28;1261;-68
2021/09/17 07:22:07;;;;;;;;;;;21.70;71.30;;;;;;5014349;28;1402;-70
2021/09/17 07:24:33;;;;;;;;;;;21.70;71.20;;;;;;5014224;28;1975;-69
2021/09/17 07:26:58;;;;;;;;;;;21.70;71.20;;;;;;5013938;28;1236;-70
2021/09/17 07:29:23;;;;;;;;;;;21.80;71.30;;;;;;5014389;28;1310;-71
2021/09/17 07:31:49;;;;;;;;;;;21.70;71.20;;;;;;5014102;28;1394;-70
2021/09/17 07:34:14;;;;;;;;;;;21.70;71.20;;;;;;4996819;28;1353;-70
2021/09/17 07:36:40;;;;;;;;;;;21.70;71.20;;;;;;5015303;28;1166;-70
2021/09/17 07:39:05;;;;;;;;;;;21.70;71.20;;;;;;4987938;28;1312;-70
2021/09/17 07:41:31;;;;;;;;;;;21.70;71.20;;;;;;5013688;28;1288;-70
2021/09/17 07:43:56;;;;;;;;;;;21.70;71.20;;;;;;5013645;28;1236;-70
2021/09/17 07:46:21;;;;;;;;;;;21.70;71.20;;;;;;5013090;28;1899;-69
2021/09/17 07:48:47;;;;;;;;;;;21.70;71.20;;;;;;5013513;28;1354;-70
2021/09/17 07:51:12;;;;;;;;;;;21.70;71.20;;;;;;4999861;28;1292;-70
2021/09/17 07:53:38;;;;;;;;;;;21.70;71.20;;;;;;5012832;28;998;-71
2021/09/17 07:56:03;;;;;;;;;;;21.70;72.00;;;;;;5013359;28;1109;-70
2021/09/17 07:58:29;;;;;;;;;;;21.70;71.20;;;;;;5013501;28;1336;-71
2021/09/17 08:00:54;;;;;;;;;;;21.80;71.30;;;;;;5013657;28;1295;-70
2021/09/17 08:03:21;;;;;;;;;;;21.70;71.20;;;;;;5014017;28;1097;-70
2021/09/17 08:05:47;;;;;;;;;;;21.80;71.30;;;;;;4995539;28;1984;-70
2021/09/17 08:08:12;;;;;;;;;;;21.80;71.30;;;;;;4996043;28;1307;-71
2021/09/17 08:10:38;;;;;;;;;;;21.80;71.20;;;;;;5013785;28;1279;-71
2021/09/17 08:13:03;;;;;;;;;;;21.80;71.20;;;;;;5013407;28;1312;-71
2021/09/17 08:15:29;;;;;;;;;;;21.80;71.20;;;;;;5013311;28;1294;-70
2021/09/17 08:17:54;;;;;;;;;;;21.80;71.20;;;;;;4995683;28;1277;-71
2021/09/17 08:20:19;;;;;;;;;;;21.80;71.20;;;;;;4997623;28;1351;-70
2021/09/17 08:22:45;;;;;;;;;;;21.80;71.20;;;;;;5003312;28;1332;-71
2021/09/17 08:25:10;;;;;;;;;;;21.80;71.20;;;;;;5003430;28;1902;-70
2021/09/17 08:27:37;;;;;;;;;;;21.80;71.20;;;;;;5012388;28;1228;-70
2021/09/17 08:30:03;;;;;;;;;;;21.80;71.30;;;;;;5002259;28;1324;-70
2021/09/17 08:32:29;;;;;;;;;;;21.80;71.20;;;;;;5012820;28;1209;-71
2021/09/17 08:34:54;;;;;;;;;;;21.80;71.20;;;;;;4995549;28;1306;-71
2021/09/17 08:37:19;;;;;;;;;;;21.80;71.30;;;;;;4990937;28;1378;-72
2021/09/17 08:39:45;;;;;;;;;;;21.80;71.20;;;;;;5011293;28;1282;-71
2021/09/17 08:42:10;;;;;;;;;;;21.80;71.30;;;;;;4995249;28;1152;-71
2021/09/17 08:44:36;;;;;;;;;;;21.80;71.20;;;;;;4994879;28;1965;-70
2021/09/17 08:47:02;;;;;;;;;;;21.80;71.20;;;;;;5011675;28;1245;-70
2021/09/17 08:49:27;;;;;;;;;;;21.80;71.20;;;;;;5010750;28;1396;-69
2021/09/17 08:51:52;;;;;;;;;;;21.80;71.20;;;;;;4993449;28;1384;-70
2021/09/17 08:54:18;;;;;;;;;;;21.80;71.20;;;;;;5011869;28;1387;-70
2021/09/17 08:56:43;;;;;;;;;;;21.80;71.20;;;;;;5012303;28;1280;-69
2021/09/17 08:59:09;;;;;;;;;;;21.80;71.20;;;;;;5012675;28;1444;-69
2021/09/17 09:01:36;;;;;;;;;;;21.80;71.20;;;;;;5013246;28;1147;-70
2021/09/17 09:04:03;;;;;;;;;;;21.80;71.20;;;;;;4997408;28;1263;-70
2021/09/17 09:06:35;;;;;;;;;;;21.80;71.20;;;;;;5023975;28;1899;-70
2021/09/17 09:09:00;;;;;;;;;;;21.80;71.30;;;;;;4995300;28;1283;-70
2021/09/17 09:11:26;;;;;;;;;;;21.70;71.20;;;;;;5012786;28;1053;-70
2021/09/17 09:14:03;;;;;;;;;;;21.80;71.30;;;;;;4995407;28;1161;-70
2021/09/17 09:16:29;;;;;;;;;;;21.80;71.30;;;;;;4995047;28;1327;-69
2021/09/17 09:18:54;;;;;;;;;;;21.70;71.30;;;;;;4986732;28;1352;-70
2021/09/17 09:21:24;;;;;;;;;;;21.70;71.30;;;;;;4987192;28;1703;-70
2021/09/17 09:23:52;;;;;;;;;;;21.70;71.40;;;;;;4990499;28;1299;-70
2021/09/17 09:26:17;;;;;;;;;;;21.70;71.40;;;;;;4993156;28;1923;-69
2021/09/17 09:28:44;;;;;;;;;;;21.70;71.40;;;;;;4994755;28;1445;-69
2021/09/17 09:31:10;;;;;;;;;;;21.70;71.40;;;;;;5011378;28;895;-69
2021/09/17 09:33:42;;;;;;;;;;;21.70;71.50;;;;;;5012785;28;1379;-68
2021/09/17 09:36:07;;;;;;;;;;;21.70;71.50;;;;;;5012622;28;1254;-69
2021/09/17 09:38:37;;;;;;;;;;;21.70;71.50;;;;;;5012488;28;1286;-68
2021/09/17 09:41:03;;;;;;;;;;;21.70;71.60;;;;;;5012550;28;1246;-68
2021/09/17 09:43:32;;;;;;;;;;;21.70;71.50;;;;;;5025976;28;1160;-68
2021/09/17 09:46:36;;;;;;;;;;;21.70;71.60;;;;;;4994729;28;1894;-68
2021/09/17 09:49:02;;;;;;;;;;;21.70;71.60;;;;;;4951900;28;1298;-68
2021/09/17 09:51:28;;;;;;;;;;;21.70;71.60;;;;;;4951907;29;1376;-68
2021/09/17 09:53:54;;;;;;;;;;;21.70;71.60;;;;;;4980440;28;1378;-69
2021/09/17 09:56:19;;;;;;;;;;;21.70;71.70;;;;;;4995287;28;1097;-68
2021/09/17 09:58:45;;;;;;;;;;;21.70;71.70;;;;;;4998433;28;1366;-68
2021/09/17 10:01:11;;;;;;;;;;;21.70;71.70;;;;;;4998246;28;1279;-68
2021/09/17 10:03:36;;;;;;;;;;;21.70;71.70;;;;;;5016001;28;1330;-69
2021/09/17 10:06:02;;;;;;;;;;;21.70;71.70;;;;;;4997923;28;1960;-68
2021/09/17 10:08:27;;;;;;;;;;;21.70;71.70;;;;;;4998212;28;1295;-68
2021/09/17 10:10:53;;;;;;;;;;;21.60;71.70;;;;;;5015668;28;1314;-68
2021/09/17 10:13:19;;;;;;;;;;;21.70;71.80;;;;;;4998543;28;1270;-68
2021/09/17 10:15:44;;;;;;;;;;;21.60;71.80;;;;;;5015189;28;1133;-68
2021/09/17 10:18:10;;;;;;;;;;;21.60;71.80;;;;;;5015597;28;1344;-69
2021/09/17 10:20:36;;;;;;;;;;;21.70;71.50;;;;;;4997838;28;1328;-69
2021/09/17 10:23:13;;;;;;;;;;;21.60;68.50;;;;;;4998101;28;1269;-68
2021/09/17 10:25:38;;;;;;;;;;;21.70;67.20;;;;;;4997503;28;1918;-68
2021/09/17 10:28:05;;;;;;;;;;;21.70;68.70;;;;;;4997786;28;1411;-68
2021/09/17 10:30:31;;;;;;;;;;;21.70;68.30;;;;;;5015195;28;1399;-69
2021/09/17 10:32:56;;;;;;;;;;;21.70;68.40;;;;;;5015418;28;1263;-68
2021/09/17 10:35:26;;;;;;;;;;;21.70;68.80;;;;;;5015292;28;1119;-68
2021/09/17 10:37:59;;;;;;;;;;;21.70;68.80;;;;;;4997824;28;1293;-68
2021/09/17 10:40:35;;;;;;;;;;;21.70;67.70;;;;;;4997655;28;1333;-68
2021/09/17 10:43:09;;;;;;;;;;;21.70;67.30;;;;;;4981209;28;1475;-68
2021/09/17 10:45:38;;;;;;;;;;;21.70;67.50;;;;;;5015218;28;1965;-68
2021/09/17 10:48:03;;;;;;;;;;;21.70;67.60;;;;;;5015000;28;1383;-69
2021/09/17 10:50:38;;;;;;;;;;;21.70;67.00;;;;;;4997515;28;1458;-68
2021/09/17 10:53:03;;;;;;;;;;;21.70;66.50;;;;;;5014942;28;1292;-68
2021/09/17 10:55:44;;;;;;;;;;;21.70;66.50;;;;;;5014663;28;1279;-69
2021/09/17 10:58:19;;;;;;;;;;;21.70;65.90;;;;;;4997362;28;1340;-69
2021/09/17 11:00:51;;;;;;;;;;;21.60;63.80;;;;;;5014854;28;1223;-69
2021/09/17 11:03:36;;;;;;;;;;;21.60;63.60;;;;;;5014976;28;1475;-69
2021/09/17 11:08:46;;;;;;;;;;;21.60;63.60;;;;;;5014501;28;1381;-69
2021/09/17 11:11:24;;;;;;;;;;;21.60;63.50;;;;;;5014686;28;1328;-69
2021/09/17 11:13:50;;;;;;;;;;;21.60;63.50;;;;;;4997341;28;1346;-69
2021/09/17 11:16:18;;;;;;;;;;;21.50;64.00;;;;;;4996622;28;1070;-69
2021/09/17 11:18:51;;;;;;;;;;;21.50;64.20;;;;;;4996874;28;1377;-69
2021/09/17 11:21:16;;;;;;;;;;;21.50;63.80;;;;;;5014516;28;1355;-69
2021/09/17 11:23:45;;;;;;;;;;;21.50;64.20;;;;;;4996969;28;1396;-69
2021/09/17 11:26:10;;;;;;;;;;;21.50;64.60;;;;;;5014078;28;1902;-69
2021/09/17 11:28:35;;;;;;;;;;;21.50;64.30;;;;;;5014222;28;1402;-69
2021/09/17 11:31:14;;;;;;;;;;;21.60;64.90;;;;;;4996650;28;1155;-69
2021/09/17 11:33:39;;;;;;;;;;;21.60;64.90;;;;;;4996800;28;1133;-69
2021/09/17 11:36:05;;;;;;;;;;;21.60;64.80;;;;;;5013914;28;1334;-69
2021/09/17 11:38:31;;;;;;;;;;;21.60;64.40;;;;;;5027163;28;1668;-68
2021/09/17 11:40:57;;;;;;;;;;;21.60;64.10;;;;;;5014156;28;1270;-69
2021/09/17 11:43:22;;;;;;;;;;;21.60;63.90;;;;;;5013698;28;1057;-68
2021/09/17 11:45:48;;;;;;;;;;;21.60;64.50;;;;;;5013414;28;1891;-68
2021/09/17 11:48:26;;;;;;;;;;;21.60;65.10;;;;;;5018703;28;1395;-69
2021/09/17 11:50:52;;;;;;;;;;;21.60;64.70;;;;;;4986429;28;1426;-69
2021/09/17 11:53:17;;;;;;;;;;;21.50;65.20;;;;;;5014148;28;990;-68
2021/09/17 11:55:43;;;;;;;;;;;21.50;64.70;;;;;;4995952;28;1297;-69
2021/09/17 11:58:08;;;;;;;;;;;21.50;64.30;;;;;;5002691;28;1065;-69
2021/09/17 12:00:34;;;;;;;;;;;21.50;65.00;;;;;;5020311;28;1361;-69
2021/09/17 12:03:02;;;;;;;;;;;21.50;64.70;;;;;;4996236;28;1239;-69
2021/09/17 12:05:28;;;;;;;;;;;21.50;64.40;;;;;;5013545;28;1977;-68
2021/09/17 12:07:53;;;;;;;;;;;21.50;64.40;;;;;;4991313;28;2022;-69
2021/09/17 12:10:20;;;;;;;;;;;21.50;64.90;;;;;;4979295;28;1335;-70
2021/09/17 12:12:47;;;;;;;;;;;21.50;64.90;;;;;;4995080;28;1356;-69
2021/09/17 12:15:13;;;;;;;;;;;21.50;64.70;;;;;;4993643;28;2198;-69
2021/09/17 12:17:51;;;;;;;;;;;21.40;64.50;;;;;;4990869;28;1081;-69
2021/09/17 12:20:17;;;;;;;;;;;21.40;64.40;;;;;;5002565;28;1256;-69
2021/09/17 12:22:46;;;;;;;;;;;21.40;64.30;;;;;;5000134;28;993;-69
2021/09/17 12:25:16;;;;;;;;;;;21.40;64.40;;;;;;4985803;28;1965;-69
2021/09/17 12:27:47;;;;;;;;;;;21.40;63.60;;;;;;5013197;28;1315;-70
2021/09/17 12:30:19;;;;;;;;;;;21.40;63.30;;;;;;4998555;28;1321;-69
2021/09/17 12:32:54;;;;;;;;;;;21.40;63.40;;;;;;5005428;28;1320;-69
2021/09/17 12:35:20;;;;;;;;;;;21.40;63.20;;;;;;5008757;28;1416;-69
2021/09/17 12:37:55;;;;;;;;;;;21.40;63.30;;;;;;4995363;28;1283;-69
2021/09/17 12:40:21;;;;;;;;;;;21.40;63.80;;;;;;4995550;28;1365;-69
2021/09/17 12:42:57;;;;;;;;;;;21.30;64.20;;;;;;4995713;28;1354;-68
2021/09/17 12:45:22;;;;;;;;;;;21.30;63.50;;;;;;4995538;28;1899;-69
2021/09/17 12:47:51;;;;;;;;;;;21.30;63.30;;;;;;5012914;28;1298;-69
2021/09/17 12:50:17;;;;;;;;;;;21.30;63.30;;;;;;5013134;28;1280;-69
2021/09/17 12:52:43;;;;;;;;;;;21.30;63.00;;;;;;4995482;28;1316;-68
2021/09/17 12:55:27;;;;;;;;;;;21.30;62.70;;;;;;4995691;28;1289;-69
2021/09/17 12:57:54;;;;;;;;;;;21.30;62.80;;;;;;4995255;28;1375;-68
2021/09/17 13:00:19;;;;;;;;;;;21.30;62.90;;;;;;4995349;28;1352;-69
2021/09/17 13:02:45;;;;;;;;;;;21.30;62.40;;;;;;5012969;28;1246;-69
2021/09/17 13:05:11;;;;;;;;;;;21.30;63.30;;;;;;5012940;28;1902;-69
2021/09/17 13:07:36;;;;;;;;;;;21.30;63.10;;;;;;5012919;28;1272;-69
2021/09/17 13:10:01;;;;;;;;;;;21.30;62.70;;;;;;5012885;28;1280;-69
2021/09/17 13:12:27;;;;;;;;;;;21.20;62.70;;;;;;5012810;28;1321;-69
2021/09/17 13:14:53;;;;;;;;;;;21.20;62.90;;;;;;4995469;28;1282;-69
2021/09/17 13:17:19;;;;;;;;;;;21.20;63.30;;;;;;4994807;28;1133;-69
2021/09/17 13:19:44;;;;;;;;;;;21.20;62.50;;;;;;5012803;28;1276;-69
2021/09/17 13:22:09;;;;;;;;;;;21.20;62.40;;;;;;5012671;28;1330;-69
2021/09/17 13:24:35;;;;;;;;;;;21.20;62.40;;;;;;4978936;28;1965;-69
2021/09/17 13:27:00;;;;;;;;;;;21.20;63.00;;;;;;4995054;28;1333;-69
2021/09/17 13:29:26;;;;;;;;;;;21.20;62.60;;;;;;5012867;28;1385;-69
2021/09/17 13:31:51;;;;;;;;;;;21.20;62.30;;;;;;5015747;28;1397;-69
2021/09/17 13:34:17;;;;;;;;;;;21.20;62.40;;;;;;5016623;28;1270;-69
2021/09/17 13:36:42;;;;;;;;;;;21.20;62.50;;;;;;5016111;28;1284;-69
2021/09/17 13:39:07;;;;;;;;;;;21.20;62.80;;;;;;5016754;28;1353;-69
2021/09/17 13:41:33;;;;;;;;;;;21.20;62.70;;;;;;5016284;28;1330;-69
2021/09/17 13:43:58;;;;;;;;;;;21.20;63.20;;;;;;5016384;28;1261;-69
2021/09/17 13:46:24;;;;;;;;;;;21.20;63.40;;;;;;5015694;28;1959;-69
2021/09/17 13:48:49;;;;;;;;;;;21.20;63.20;;;;;;5016208;28;1276;-68
2021/09/17 13:51:14;;;;;;;;;;;21.20;63.20;;;;;;4998745;28;1428;-69
2021/09/17 13:53:41;;;;;;;;;;;21.20;63.50;;;;;;5016198;28;1276;-69
2021/09/17 13:56:06;;;;;;;;;;;21.20;63.50;;;;;;4998465;28;1416;-69
2021/09/17 13:58:32;;;;;;;;;;;21.20;63.20;;;;;;5015975;28;1343;-69
2021/09/17 14:00:57;;;;;;;;;;;21.10;62.80;;;;;;5016259;28;1125;-69
2021/09/17 14:03:22;;;;;;;;;;;21.10;62.70;;;;;;4998922;28;1321;-69
2021/09/17 14:05:48;;;;;;;;;;;21.20;62.80;;;;;;5015413;28;1902;-69
2021/09/17 14:08:13;;;;;;;;;;;21.20;62.90;;;;;;5015951;28;1244;-69
2021/09/17 14:10:39;;;;;;;;;;;21.20;62.90;;;;;;5015697;28;1285;-69
2021/09/17 14:13:05;;;;;;;;;;;21.20;62.90;;;;;;5016106;28;1372;-69
2021/09/17 14:15:30;;;;;;;;;;;21.20;63.00;;;;;;5015631;28;1317;-69
2021/09/17 14:17:55;;;;;;;;;;;21.30;63.30;;;;;;4998084;28;1411;-69
2021/09/17 14:20:21;;;;;;;;;;;21.30;63.30;;;;;;5015412;28;1331;-69
2021/09/17 14:22:46;;;;;;;;;;;21.30;63.50;;;;;;5015410;28;1296;-69
2021/09/17 14:25:12;;;;;;;;;;;21.30;63.50;;;;;;5015440;28;1914;-69
2021/09/17 14:27:37;;;;;;;;;;;21.40;63.10;;;;;;5015173;28;1265;-69
2021/09/17 14:30:03;;;;;;;;;;;21.40;63.00;;;;;;5015157;28;1284;-69